Time;durP1;ratioP1;P1;durP2;ratioP2;P2;SDS_P1;SDS_P2;PMS_P1;PMS_P2;Temp;Humidity;BMP_temperature;BMP_pressure;BME280_temperature;BME280_humidity;BME280_pressure;Samples;Min_cycle;Max_cycle;Signal;HPM_P1;HPM_P2
2022/07/31 00:01:42;;;;;;;3.93;2.60;;;;;;;13.43;100.00;100852.84;4980178;28;20228;-71
2022/07/31 00:04:08;;;;;;;2.97;2.30;;;;;;;13.34;100.00;100849.72;4966825;28;20604;-71
2022/07/31 00:06:34;;;;;;;3.30;2.67;;;;;;;13.32;100.00;100846.31;4969128;28;20670;-70
2022/07/31 00:09:01;;;;;;;3.67;2.50;;;;;;;13.31;100.00;100845.41;4976765;28;20222;-70
2022/07/31 00:11:27;;;;;;;2.47;2.27;;;;;;;13.38;100.00;100846.91;4971018;28;20205;-70
2022/07/31 00:13:53;;;;;;;3.67;2.60;;;;;;;13.33;100.00;100842.75;4970500;28;20216;-70
2022/07/31 00:16:21;;;;;;;2.30;2.10;;;;;;;13.25;100.00;100849.06;4973238;28;20215;-71
2022/07/31 00:18:48;;;;;;;3.03;2.30;;;;;;;13.17;100.00;100845.84;4968638;28;20226;-70
2022/07/31 00:21:14;;;;;;;3.67;2.30;;;;;;;13.18;100.00;100850.19;5008038;23;20586;-72
2022/07/31 00:23:41;;;;;;;3.87;2.63;;;;;;;13.13;100.00;100853.88;5002527;28;20217;-72
2022/07/31 00:26:07;;;;;;;3.07;2.20;;;;;;;13.13;100.00;100853.88;5003290;28;20201;-72
2022/07/31 00:28:34;;;;;;;3.27;2.57;;;;;;;13.15;100.00;100849.44;4995064;28;20738;-72
2022/07/31 00:31:00;;;;;;;2.87;2.40;;;;;;;13.04;100.00;100847.19;5006029;28;20212;-72
2022/07/31 00:33:29;;;;;;;2.80;2.13;;;;;;;13.10;100.00;100846.13;5013762;23;20210;-74
2022/07/31 00:35:57;;;;;;;2.40;2.20;;;;;;;12.95;100.00;100844.88;5011505;28;20211;-73
2022/07/31 00:38:24;;;;;;;2.80;2.53;;;;;;;12.88;100.00;100852.91;5019383;28;20220;-74
2022/07/31 00:40:52;;;;;;;4.30;2.77;;;;;;;12.87;100.00;100851.22;5008771;28;20227;-74
2022/07/31 00:43:19;;;;;;;3.37;2.20;;;;;;;12.85;100.00;100842.53;5019644;28;20246;-73
2022/07/31 00:45:48;;;;;;;3.33;2.40;;;;;;;12.86;100.00;100844.25;5025393;28;20236;-73
2022/07/31 00:48:15;;;;;;;2.40;2.20;;;;;;;12.77;100.00;100841.94;5009967;28;20214;-74
2022/07/31 00:50:44;;;;;;;2.90;2.30;;;;;;;12.73;100.00;100840.31;5007698;28;20215;-74
2022/07/31 00:53:11;;;;;;;2.60;2.40;;;;;;;12.69;100.00;100843.94;5016630;28;20213;-74
2022/07/31 00:55:38;;;;;;;3.50;2.77;;;;;;;12.65;100.00;100837.94;5037089;28;20288;-73
2022/07/31 00:58:04;;;;;;;4.10;2.50;;;;;;;12.60;100.00;100845.06;5011519;28;20281;-73
2022/07/31 01:00:31;;;;;;;2.53;2.23;;;;;;;12.59;100.00;100834.66;5020232;28;20254;-72
2022/07/31 01:02:57;;;;;;;2.80;2.27;;;;;;;12.54;100.00;100834.81;5032696;28;20246;-74
2022/07/31 01:05:24;;;;;;;3.00;2.33;;;;;;;12.57;100.00;100836.47;5021904;28;20596;-74
2022/07/31 01:07:52;;;;;;;3.13;2.23;;;;;;;12.52;100.00;100831.38;5023785;28;20225;-74
2022/07/31 01:10:26;;;;;;;3.20;2.83;;;;;;;12.56;100.00;100825.16;5035097;28;20208;-74
2022/07/31 01:12:56;;;;;;;3.77;2.60;;;;;;;12.66;100.00;100829.19;5021941;28;20219;-74
2022/07/31 01:15:24;;;;;;;3.00;2.50;;;;;;;12.71;100.00;100825.56;5015026;28;20748;-73
2022/07/31 01:17:52;;;;;;;3.47;2.63;;;;;;;12.72;100.00;100832.50;4998793;28;20218;-74
2022/07/31 01:20:20;;;;;;;3.50;3.17;;;;;;;12.66;100.00;100831.81;5021724;28;20211;-74
2022/07/31 01:23:16;;;;;;;3.77;2.87;;;;;;;12.64;100.00;100825.75;5014670;28;20239;-74
2022/07/31 01:26:12;;;;;;;3.47;2.77;;;;;;;12.63;100.00;100825.81;5003410;28;20200;-74
2022/07/31 01:29:03;;;;;;;4.03;3.03;;;;;;;12.80;100.00;100820.88;5028361;28;20312;-74
2022/07/31 01:31:34;;;;;;;3.73;2.97;;;;;;;12.75;100.00;100825.44;5013873;28;20222;-72
2022/07/31 01:34:07;;;;;;;5.00;3.37;;;;;;;12.77;100.00;100825.34;5032078;28;20642;-73
2022/07/31 01:36:39;;;;;;;4.07;3.67;;;;;;;12.77;100.00;100830.59;5011588;28;20230;-73
2022/07/31 01:39:06;;;;;;;4.40;3.57;;;;;;;12.77;100.00;100834.09;5014920;28;20204;-73
2022/07/31 01:41:40;;;;;;;4.43;3.50;;;;;;;12.72;100.00;100827.25;5025220;28;20755;-74
2022/07/31 01:44:10;;;;;;;3.97;3.30;;;;;;;12.74;100.00;100831.56;5046515;28;20202;-74
2022/07/31 01:46:38;;;;;;;3.87;3.27;;;;;;;12.75;100.00;100830.66;5018528;28;20227;-73
2022/07/31 01:49:06;;;;;;;4.27;3.67;;;;;;;12.77;100.00;100833.22;5015030;28;20198;-74
2022/07/31 01:51:34;;;;;;;7.57;4.13;;;;;;;12.76;100.00;100828.91;5012610;28;20215;-73
2022/07/31 01:54:02;;;;;;;5.17;3.97;;;;;;;12.73;100.00;100827.22;5022020;28;20193;-74
2022/07/31 01:56:31;;;;;;;5.40;4.00;;;;;;;12.83;100.00;100828.63;5017631;28;20192;-73
2022/07/31 01:58:59;;;;;;;5.10;3.63;;;;;;;12.83;100.00;100833.88;5022975;28;20294;-73
2022/07/31 02:01:40;;;;;;;4.33;3.93;;;;;;;12.82;100.00;100826.94;5009999;28;20219;-74
2022/07/31 02:04:09;;;;;;;5.97;4.23;;;;;;;12.74;100.00;100828.09;5028752;28;20203;-74
2022/07/31 02:06:36;;;;;;;5.57;3.93;;;;;;;12.66;100.00;100826.59;5017480;28;20255;-74
2022/07/31 02:09:03;;;;;;;5.23;4.07;;;;;;;12.57;100.00;100833.84;5019416;28;20290;-73
2022/07/31 02:11:31;;;;;;;7.00;4.57;;;;;;;12.75;100.00;100824.56;5019546;28;20238;-73
2022/07/31 02:13:58;;;;;;;5.73;3.80;;;;;;;12.59;100.00;100825.03;5014301;28;20210;-73
2022/07/31 02:16:26;;;;;;;5.73;4.30;;;;;;;12.62;100.00;100818.88;5021010;28;20206;-74
2022/07/31 02:19:05;;;;;;;4.10;3.70;;;;;;;12.64;100.00;100820.53;5005244;28;20692;-73
2022/07/31 02:21:32;;;;;;;4.10;3.70;;;;;;;12.60;100.00;100818.91;4999770;28;20238;-74
2022/07/31 02:23:58;;;;;;;4.50;3.90;;;;;;;12.48;100.00;100811.44;5015469;28;20685;-74
2022/07/31 02:26:27;;;;;;;4.13;3.70;;;;;;;12.68;100.00;100805.59;5015786;28;20199;-74
2022/07/31 02:28:54;;;;;;;5.33;4.00;;;;;;;12.62;100.00;100801.41;5020740;28;20235;-73
2022/07/31 02:31:23;;;;;;;6.37;3.80;;;;;;;12.49;100.00;100806.19;5029199;28;20742;-73
2022/07/31 02:33:51;;;;;;;4.53;3.77;;;;;;;12.60;100.00;100800.59;5019906;28;20282;-73
2022/07/31 02:36:21;;;;;;;4.30;3.80;;;;;;;12.56;100.00;100801.63;5012703;28;20244;-74
2022/07/31 02:38:49;;;;;;;5.23;3.97;;;;;;;12.48;100.00;100804.44;5034680;28;20217;-74
2022/07/31 02:41:17;;;;;;;4.43;3.83;;;;;;;12.57;100.00;100812.94;4998401;28;20745;-74
2022/07/31 02:43:46;;;;;;;5.80;4.23;;;;;;;12.59;100.00;100811.13;5018950;28;20198;-73
2022/07/31 02:46:21;;;;;;;5.20;4.33;;;;;;;12.56;100.00;100801.63;5012004;28;20867;-74
2022/07/31 02:48:50;;;;;;;4.97;4.20;;;;;;;12.46;100.00;100806.25;5021260;28;20299;-73
2022/07/31 02:51:19;;;;;;;5.77;3.90;;;;;;;12.58;100.00;100807.66;5019982;28;20251;-74
2022/07/31 02:53:46;;;;;;;4.53;3.47;;;;;;;12.63;100.00;100813.59;5008360;28;20205;-74
2022/07/31 02:56:14;;;;;;;5.47;4.13;;;;;;;12.48;100.00;100809.69;5004280;28;20216;-73
2022/07/31 02:58:42;;;;;;;5.20;4.00;;;;;;;12.57;100.00;100812.94;5026616;28;20207;-73
2022/07/31 03:01:17;;;;;;;5.30;3.80;;;;;;;12.60;100.00;100808.44;5016792;28;20220;-73
2022/07/31 03:03:44;;;;;;;5.87;3.93;;;;;;;12.55;100.00;100807.75;5014709;28;20216;-74
2022/07/31 03:06:11;;;;;;;4.30;3.40;;;;;;;12.44;100.00;100807.22;5012002;28;20201;-74
2022/07/31 03:08:39;;;;;;;3.83;3.40;;;;;;;12.51;100.00;100800.91;5013837;28;20193;-74
2022/07/31 03:11:08;;;;;;;4.43;3.57;;;;;;;12.53;100.00;100798.25;5020281;28;20265;-74
2022/07/31 03:13:36;;;;;;;4.87;3.93;;;;;;;12.23;100.00;100799.13;5046277;28;20202;-74
2022/07/31 03:16:06;;;;;;;5.77;4.13;;;;;;;12.44;100.00;100800.22;5029746;28;20207;-73
2022/07/31 03:18:33;;;;;;;4.17;3.77;;;;;;;12.47;100.00;100786.19;5035148;28;20208;-73
2022/07/31 03:21:00;;;;;;;5.27;3.83;;;;;;;12.47;100.00;100796.66;5031201;28;20663;-74
2022/07/31 03:23:34;;;;;;;4.47;4.03;;;;;;;12.44;100.00;100795.00;5024249;28;20198;-73
2022/07/31 03:26:06;;;;;;;4.40;3.97;;;;;;;12.38;100.00;100792.56;4998130;28;20193;-73
2022/07/31 03:28:34;;;;;;;6.13;4.40;;;;;;;12.45;100.00;100793.22;5043881;28;20202;-73
2022/07/31 03:31:01;;;;;;;5.17;4.23;;;;;;;12.50;100.00;100788.72;5012447;28;20220;-74
2022/07/31 03:33:52;;;;;;;4.37;3.87;;;;;;;12.47;100.00;100781.84;5041123;28;20218;-73
2022/07/31 03:36:19;;;;;;;4.20;3.80;;;;;;;12.37;100.00;100785.63;5040593;28;20740;-74
2022/07/31 03:38:45;;;;;;;4.83;4.43;;;;;;;12.40;100.00;100789.91;5021206;28;20230;-73
2022/07/31 03:41:22;;;;;;;4.80;4.17;;;;;;;12.41;100.00;100784.63;5011498;28;20712;-73
2022/07/31 03:43:49;;;;;;;5.40;4.37;;;;;;;12.34;100.00;100785.72;5043666;28;20198;-73
2022/07/31 03:46:21;;;;;;;4.80;4.30;;;;;;;12.42;100.00;100791.59;5015744;28;20203;-73
2022/07/31 03:48:50;;;;;;;4.10;3.70;;;;;;;12.36;100.00;100794.38;5038190;28;20208;-73
2022/07/31 03:51:18;;;;;;;4.90;3.90;;;;;;;12.34;100.00;100792.72;5026297;28;20254;-74
2022/07/31 03:53:46;;;;;;;5.37;4.37;;;;;;;12.36;100.00;100794.38;5013613;28;20219;-73
2022/07/31 03:56:34;;;;;;;6.50;4.57;;;;;;;12.19;100.00;100807.09;5032914;28;20203;-74
2022/07/31 03:59:01;;;;;;;6.10;4.80;;;;;;;12.25;100.00;100804.31;5023769;28;20213;-73
2022/07/31 04:01:29;;;;;;;6.30;4.43;;;;;;;12.29;100.00;100809.41;5032371;28;20624;-73
2022/07/31 04:03:59;;;;;;;6.67;4.70;;;;;;;12.26;100.00;100804.28;5021140;28;20563;-73
2022/07/31 04:06:49;;;;;;;5.03;3.63;;;;;;;12.27;100.00;100812.97;5022870;28;20193;-72
2022/07/31 04:09:15;;;;;;;6.97;4.47;;;;;;;12.47;100.00;100808.00;5014563;28;20420;-74
2022/07/31 04:11:43;;;;;;;4.97;4.30;;;;;;;12.55;100.00;100812.13;5020799;28;20208;-74
2022/07/31 04:14:10;;;;;;;6.87;3.93;;;;;;;12.55;100.00;100802.50;5021088;28;20193;-73
2022/07/31 04:16:37;;;;;;;5.90;4.53;;;;;;;12.56;100.00;100816.44;5018027;28;20203;-73
2022/07/31 04:19:03;;;;;;;5.53;4.20;;;;;;;12.63;100.00;100813.59;5021799;28;20317;-73
2022/07/31 04:21:30;;;;;;;4.17;3.77;;;;;;;12.85;100.00;100810.28;5045358;28;20665;-73
2022/07/31 04:23:56;;;;;;;6.83;4.20;;;;;;;12.91;100.00;100812.72;5033151;28;20206;-73
2022/07/31 04:26:38;;;;;;;5.40;4.23;;;;;;;12.99;100.00;100812.44;5025594;28;20354;-73
2022/07/31 04:29:05;;;;;;;7.53;4.63;;;;;;;13.04;100.00;100810.53;5024592;28;20206;-73
2022/07/31 04:31:32;;;;;;;5.40;4.77;;;;;;;13.11;100.00;100811.19;5021192;28;20256;-72
2022/07/31 04:33:59;;;;;;;5.80;4.43;;;;;;;13.31;100.00;100821.84;5014887;28;20218;-73
2022/07/31 04:36:26;;;;;;;5.57;4.47;;;;;;;13.33;100.00;100816.56;5013719;28;20301;-74
2022/07/31 04:38:52;;;;;;;5.97;4.43;;;;;;;13.35;100.00;100818.25;5018207;28;20284;-74
2022/07/31 04:41:18;;;;;;;5.30;4.30;;;;;;;13.40;100.00;100821.56;5043439;28;20280;-74
2022/07/31 04:43:45;;;;;;;5.77;4.93;;;;;;;13.46;100.00;100814.41;5017730;28;20212;-73
2022/07/31 04:46:13;;;;;;;9.80;4.30;;;;;;;13.44;100.00;100814.44;5039247;28;20565;-74
2022/07/31 04:48:40;;;;;;;4.73;4.03;;;;;;;13.39;100.00;100817.22;5025902;28;20279;-74
2022/07/31 04:51:06;;;;;;;5.33;4.60;;;;;;;13.46;100.00;100815.25;5014462;28;20671;-74
2022/07/31 04:53:33;;;;;;;5.57;4.67;;;;;;;13.34;100.00;100819.13;5015515;28;20230;-74
2022/07/31 04:58:43;;;;;;;5.87;4.80;;;;;;;13.32;100.00;100825.34;5012761;28;20575;-73
2022/07/31 05:01:10;;;;;;;6.97;4.83;;;;;;;13.49;100.00;100811.66;5020394;28;20499;-74
2022/07/31 05:03:38;;;;;;;6.43;5.37;;;;;;;13.44;100.00;100822.31;5027323;28;20577;-74
2022/07/31 05:06:14;;;;;;;6.70;5.23;;;;;;;13.66;100.00;100816.31;5008203;28;20200;-73
2022/07/31 05:08:40;;;;;;;8.73;6.17;;;;;;;13.67;100.00;100811.00;5023960;28;20207;-73
2022/07/31 05:11:22;;;;;;;8.67;7.00;;;;;;;13.72;100.00;100811.69;5013075;28;20263;-73
2022/07/31 05:13:49;;;;;;;9.87;6.80;;;;;;;13.82;100.00;100818.31;5006843;28;20652;-74
2022/07/31 05:16:17;;;;;;;9.10;6.83;;;;;;;13.99;100.00;100806.34;5030627;28;20202;-74
2022/07/31 05:18:45;;;;;;;8.60;6.83;;;;;;;13.98;100.00;100815.13;5014855;28;20196;-74
2022/07/31 05:21:32;;;;;;;8.40;6.87;;;;;;;14.11;100.00;100812.91;4992671;28;20237;-73
2022/07/31 05:24:21;;;;;;;11.17;8.33;;;;;;;14.35;100.00;100822.47;5021148;28;20255;-73
2022/07/31 05:26:55;;;;;;;9.17;7.27;;;;;;;14.43;100.00;100829.16;5021217;28;20199;-74
2022/07/31 05:29:22;;;;;;;10.43;7.33;;;;;;;14.47;100.00;100828.97;5017801;28;20194;-74
2022/07/31 05:31:50;;;;;;;9.83;7.33;;;;;;;14.59;100.00;100819.81;5025016;28;20286;-73
2022/07/31 05:34:18;;;;;;;10.30;8.27;;;;;;;14.74;100.00;100826.22;5025058;28;20214;-73
2022/07/31 05:36:44;;;;;;;9.80;7.33;;;;;;;14.88;100.00;100815.13;5028772;28;20326;-74
2022/07/31 05:39:13;;;;;;;10.33;7.67;;;;;;;15.04;100.00;100821.47;5006623;28;20213;-74
2022/07/31 05:41:39;;;;;;;13.30;9.20;;;;;;;15.11;100.00;100822.09;5017019;28;20223;-74
2022/07/31 05:44:21;;;;;;;10.70;8.43;;;;;;;15.20;100.00;100808.56;5025719;28;20207;-73
2022/07/31 05:46:49;;;;;;;10.90;9.13;;;;;;;15.31;100.00;100818.59;4999570;28;20204;-73
2022/07/31 05:49:19;;;;;;;11.70;9.37;;;;;;;15.48;100.00;100812.63;5012872;28;20196;-73
2022/07/31 05:51:52;;;;;;;11.53;8.93;;;;;;;15.63;100.00;100817.19;5012031;28;20206;-73
2022/07/31 05:54:19;;;;;;;12.03;8.77;;;;;;;15.75;100.00;100818.47;5001637;28;20209;-73
2022/07/31 05:57:04;;;;;;;11.77;8.73;;;;;;;15.85;100.00;100819.78;5025795;28;20202;-73
2022/07/31 05:59:35;;;;;;;12.70;8.97;;;;;;;15.99;100.00;100811.25;5028298;28;20211;-74
2022/07/31 06:02:03;;;;;;;11.93;9.63;;;;;;;16.11;100.00;100817.72;5010833;28;20209;-73
2022/07/31 06:04:37;;;;;;;13.93;9.20;;;;;;;16.27;100.00;100816.09;5003131;28;20199;-72
2022/07/31 06:07:04;;;;;;;11.70;9.60;;;;;;;16.43;100.00;100818.84;5018701;28;20552;-72
2022/07/31 06:09:30;;;;;;;11.53;9.23;;;;;;;16.55;100.00;100821.81;5007865;28;20196;-73
2022/07/31 06:11:57;;;;;;;9.87;8.50;;;;;;;16.63;100.00;100820.50;5006583;28;20213;-73
2022/07/31 06:14:23;;;;;;;10.30;8.00;;;;;;;16.76;100.00;100826.06;5019970;28;20206;-73
2022/07/31 06:17:09;;;;;;;10.40;8.40;;;;;;;16.88;100.00;100827.25;5013069;28;20196;-72
2022/07/31 06:19:38;;;;;;;8.23;7.00;;;;;;;16.96;100.00;100829.53;5019083;28;20772;-73
2022/07/31 06:22:05;;;;;;;8.23;7.10;;;;;;;17.20;100.00;100824.78;4996508;23;20763;-70
2022/07/31 06:24:32;;;;;;;8.50;7.53;;;;;;;17.28;100.00;100829.69;4995846;28;20469;-70
2022/07/31 06:26:59;;;;;;;10.50;6.90;;;;;;;17.36;100.00;100833.63;4966348;28;20693;-70
2022/07/31 06:29:27;;;;;;;8.17;6.73;;;;;;;17.51;100.00;100828.50;4975585;28;20235;-71
2022/07/31 06:31:53;;;;;;;8.20;6.40;;;;;;;17.58;100.00;100827.25;4955425;28;20249;-70
2022/07/31 06:34:20;;;;;;;6.53;5.83;;;;;;;17.66;100.00;100837.38;4982681;28;20253;-70
2022/07/31 06:36:49;;;;;;;7.37;6.57;;;;;;;17.76;100.00;100838.59;4969867;28;20209;-70
2022/07/31 06:39:20;;;;;;;6.57;5.83;;;;;;;17.82;100.00;100840.94;4954701;28;20289;-71
2022/07/31 06:42:05;;;;;;;6.40;5.53;;;;;;;17.94;100.00;100842.06;4976209;28;20247;-71
2022/07/31 06:44:33;;;;;;;6.43;5.50;;;;;;;18.06;100.00;100832.66;4972296;28;20217;-71
2022/07/31 06:47:20;;;;;;;5.50;4.63;;;;;;;18.18;100.00;100842.53;4978825;28;20201;-71
2022/07/31 06:50:24;;;;;;;6.43;5.07;;;;;;;18.35;100.00;100847.75;4972288;28;20225;-71
2022/07/31 06:53:06;;;;;;;7.80;4.97;;;;;;;18.44;100.00;100846.38;4959309;28;20221;-71
2022/07/31 06:55:33;;;;;;;4.73;4.23;;;;;;;18.56;100.00;100839.59;4969079;28;20471;-72
2022/07/31 06:58:00;;;;;;;5.00;4.40;;;;;;;18.68;100.00;100836.25;4957508;28;20816;-71
2022/07/31 07:00:26;;;;;;;6.20;4.70;;;;;;;18.76;100.00;100841.09;4983091;28;20320;-71
2022/07/31 07:02:53;;;;;;;5.10;4.60;;;;;;;18.85;100.00;100843.22;4950787;28;20202;-71
2022/07/31 07:05:21;;;;;;;4.97;4.43;;;;;;;18.90;99.94;100838.53;4969336;28;20205;-71
2022/07/31 07:07:50;;;;;;;4.60;4.20;;;;;;;18.99;99.67;100839.78;4953784;28;20230;-71
2022/07/31 07:10:18;;;;;;;5.50;4.40;;;;;;;19.07;99.06;100836.72;4985153;28;20859;-71
2022/07/31 07:13:00;;;;;;;5.93;4.20;;;;;;;19.30;99.22;100830.06;4970699;28;20202;-71
2022/07/31 07:15:30;;;;;;;4.97;4.30;;;;;;;19.39;100.00;100837.44;4963656;28;20658;-71
2022/07/31 07:17:56;;;;;;;5.33;4.03;;;;;;;19.49;100.00;100832.47;4957778;28;20600;-71
2022/07/31 07:20:33;;;;;;;5.90;4.43;;;;;;;19.59;98.17;100830.94;4960880;28;20253;-71
2022/07/31 07:23:00;;;;;;;4.73;4.20;;;;;;;19.65;97.74;100833.22;4956124;28;20662;-71
2022/07/31 07:25:38;;;;;;;5.97;4.10;;;;;;;19.78;97.80;100836.00;4960339;28;20217;-71
2022/07/31 07:28:07;;;;;;;4.10;3.70;;;;;;;19.92;95.07;100842.25;4957116;28;20689;-71
2022/07/31 07:30:34;;;;;;;4.33;3.90;;;;;;;20.13;95.72;100832.13;4959747;28;20261;-70
2022/07/31 07:33:03;;;;;;;4.10;3.23;;;;;;;20.17;91.34;100838.91;4985310;28;20202;-71
2022/07/31 07:35:30;;;;;;;5.40;3.30;;;;;;;20.23;90.55;100836.72;4985235;28;20639;-71
2022/07/31 07:37:56;;;;;;;3.70;3.30;;;;;;;20.25;88.93;100841.94;4960148;28;20673;-70
2022/07/31 07:40:25;;;;;;;3.57;3.27;;;;;;;20.41;87.58;100840.00;4971724;28;20393;-71
2022/07/31 07:42:53;;;;;;;7.57;3.00;;;;;;;20.54;81.76;100845.34;4995773;28;20256;-71
2022/07/31 07:45:20;;;;;;;2.87;2.63;;;;;;;20.64;80.18;100843.00;4959191;28;20741;-72
2022/07/31 07:47:46;;;;;;;2.97;2.67;;;;;;;20.75;80.35;100834.34;4959848;28;20294;-71
2022/07/31 07:50:14;;;;;;;3.50;3.20;;;;;;;20.83;80.45;100832.06;4961644;28;20776;-70
2022/07/31 07:53:11;;;;;;;3.77;3.00;;;;;;;21.01;80.38;100829.13;4960552;28;20557;-70
2022/07/31 07:55:57;;;;;;;5.23;3.10;;;;;;;21.11;84.58;100827.56;4970627;28;20205;-70
2022/07/31 07:58:47;;;;;;;7.67;3.10;;;;;;;21.30;80.58;100841.28;4964492;28;20213;-70
2022/07/31 08:01:49;;;;;;;2.80;2.43;;;;;;;21.45;81.81;100836.72;4966276;28;20317;-70
2022/07/31 08:04:24;;;;;;;2.73;2.43;;;;;;;21.61;78.06;100846.31;4953728;28;20240;-70
2022/07/31 08:06:50;;;;;;;2.83;2.63;;;;;;;21.54;74.23;100838.75;4955827;28;20565;-70
2022/07/31 08:09:19;;;;;;;2.70;2.50;;;;;;;21.62;74.42;100837.38;4951860;28;20257;-70
2022/07/31 08:12:17;;;;;;;3.03;2.73;;;;;;;21.83;73.93;100832.38;4971683;28;20690;-70
2022/07/31 08:15:17;;;;;;;2.50;2.30;;;;;;;22.05;69.99;100848.50;4958592;28;20744;-71
2022/07/31 08:18:04;;;;;;;3.03;2.73;;;;;;;22.13;68.72;100835.53;4972653;28;20248;-70
2022/07/31 08:20:30;;;;;;;3.67;2.07;;;;;;;22.17;70.51;100830.84;4985689;28;20222;-71
2022/07/31 08:22:57;;;;;;;2.63;2.40;;;;;;;22.28;69.99;100830.94;4969491;28;20198;-71
2022/07/31 08:25:23;;;;;;;2.23;2.03;;;;;;;22.41;68.32;100833.59;4956765;28;20610;-71
2022/07/31 08:27:50;;;;;;;2.30;2.10;;;;;;;22.38;66.85;100831.16;4954567;28;20213;-71
2022/07/31 08:30:18;;;;;;;4.70;2.00;;;;;;;22.47;67.38;100824.31;4951624;28;20209;-71
2022/07/31 08:32:45;;;;;;;2.63;2.30;;;;;;;22.50;63.03;100832.91;4957736;28;20198;-71
2022/07/31 08:35:16;;;;;;;2.87;2.60;;;;;;;22.61;64.71;100832.13;4943888;28;20269;-71
2022/07/31 08:37:43;;;;;;;3.40;2.30;;;;;;;22.66;63.20;100824.66;4970496;28;20202;-71
2022/07/31 08:40:12;;;;;;;3.77;2.20;;;;;;;22.73;62.71;100822.41;4976747;28;20210;-71
2022/07/31 08:42:38;;;;;;;2.80;2.17;;;;;;;22.87;63.74;100834.66;4975774;28;20210;-71
2022/07/31 08:45:06;;;;;;;2.35;2.10;;;;;;;23.00;63.21;100831.94;4956017;28;20198;-71
2022/07/31 08:47:35;;;;;;;3.92;2.42;;;;;;;22.89;64.28;100822.09;4953641;28;20198;-71
2022/07/31 08:50:11;;;;;;;2.78;2.15;;;;;;;23.05;61.67;100819.16;4984567;28;20214;-71
2022/07/31 08:52:40;;;;;;;3.97;2.42;;;;;;;23.16;62.01;100818.34;4964782;28;20189;-71
2022/07/31 08:55:17;;;;;;;2.47;2.28;;;;;;;23.30;62.41;100809.31;4956242;28;20686;-71
2022/07/31 08:57:46;;;;;;;2.70;2.22;;;;;;;23.45;64.20;100808.13;4955803;28;20206;-71
2022/07/31 09:00:16;;;;;;;2.97;2.55;;;;;;;23.42;60.80;100811.88;4970982;28;20604;-71
2022/07/31 09:02:44;;;;;;;2.47;2.28;;;;;;;23.48;61.99;100813.19;4955361;28;20235;-72
2022/07/31 09:05:16;;;;;;;2.30;2.10;;;;;;;23.56;59.22;100805.47;4971205;28;20289;-71
2022/07/31 09:07:43;;;;;;;2.63;2.38;;;;;;;23.69;59.46;100809.84;4971093;28;20198;-71
2022/07/31 09:10:21;;;;;;;2.22;2.03;;;;;;;23.71;59.07;100802.56;4957912;28;20201;-72
2022/07/31 09:12:47;;;;;;;2.50;2.30;;;;;;;23.75;58.08;100814.69;4982375;28;20709;-72
2022/07/31 09:15:23;;;;;;;3.35;2.53;;;;;;;23.74;58.50;100811.16;4965526;28;20224;-72
2022/07/31 09:17:51;;;;;;;2.28;2.08;;;;;;;23.91;58.12;100804.53;4966638;28;20708;-72
2022/07/31 09:20:20;;;;;;;2.35;1.92;;;;;;;23.96;58.15;100807.69;4950247;28;20214;-72
2022/07/31 09:22:52;;;;;;;2.35;2.15;;;;;;;24.06;58.43;100805.13;4956404;28;20198;-72
2022/07/31 09:25:18;;;;;;;3.13;2.22;;;;;;;24.06;57.72;100801.63;4961917;28;20667;-72
2022/07/31 09:27:46;;;;;;;2.25;2.05;;;;;;;24.19;57.41;100803.19;4980910;28;20202;-72
2022/07/31 09:30:12;;;;;;;2.25;2.05;;;;;;;24.31;58.07;100801.34;4982206;28;20700;-72
2022/07/31 09:33:15;;;;;;;2.25;1.98;;;;;;;24.35;54.78;100802.78;4969366;28;20335;-72
2022/07/31 09:36:00;;;;;;;2.70;2.10;;;;;;;24.30;54.87;100806.78;4966101;28;20974;-72
2022/07/31 09:38:33;;;;;;;1.98;1.88;;;;;;;24.39;54.12;100806.03;4949965;28;20197;-72
2022/07/31 09:41:19;;;;;;;1.95;1.80;;;;;;;24.45;54.68;100792.22;4969377;28;20237;-72
2022/07/31 09:44:06;;;;;;;2.40;2.20;;;;;;;24.65;54.52;100792.44;4952064;28;20301;-70
2022/07/31 09:46:38;;;;;;;2.38;2.17;;;;;;;24.74;54.93;100781.00;4948880;28;20206;-70
2022/07/31 09:49:07;;;;;;;4.50;2.15;;;;;;;24.76;54.00;100787.03;4965714;28;20204;-71
2022/07/31 09:51:39;;;;;;;1.85;1.75;;;;;;;24.80;53.35;100792.97;4982883;28;20320;-71
2022/07/31 09:54:07;;;;;;;2.45;1.60;;;;;;;24.78;52.78;100790.41;4948241;28;20210;-71
2022/07/31 09:56:57;;;;;;;2.30;2.10;;;;;;;24.84;53.34;100783.75;4969809;28;20209;-71
2022/07/31 09:59:26;;;;;;;2.38;2.17;;;;;;;25.00;54.13;100772.63;4945012;28;20202;-71
2022/07/31 10:01:54;;;;;;;2.20;2.00;;;;;;;25.07;52.44;100771.97;4979198;28;20234;-71
2022/07/31 10:04:23;;;;;;;3.55;1.85;;;;;;;25.24;51.98;100767.00;4970056;28;21030;-71
2022/07/31 10:06:52;;;;;;;1.90;1.80;;;;;;;25.29;51.18;100765.69;4956311;28;20226;-71
2022/07/31 10:09:20;;;;;;;2.05;1.90;;;;;;;25.28;51.01;100758.66;4957074;28;20222;-71
2022/07/31 10:12:11;;;;;;;2.03;1.90;;;;;;;25.44;51.98;100760.81;4971134;28;20251;-71
2022/07/31 10:14:40;;;;;;;2.20;2.00;;;;;;;25.44;51.47;100755.50;4956727;28;20202;-71
2022/07/31 10:17:08;;;;;;;2.20;1.95;;;;;;;25.56;52.18;100752.72;4973639;28;21018;-71
2022/07/31 10:19:58;;;;;;;1.95;1.60;;;;;;;25.69;50.94;100758.69;4988606;28;20198;-71
2022/07/31 10:22:49;;;;;;;1.45;1.35;;;;;;;25.63;49.55;100761.91;4958490;28;20533;-71
2022/07/31 10:25:22;;;;;;;1.70;1.60;;;;;;;25.78;48.15;100768.53;4952498;28;22116;-71
2022/07/31 10:27:50;;;;;;;1.83;1.73;;;;;;;25.78;48.95;100755.19;4959590;28;20213;-71
2022/07/31 10:30:17;;;;;;;2.45;1.83;;;;;;;25.74;48.87;100767.13;4951087;28;20197;-71
2022/07/31 10:32:51;;;;;;;2.00;1.85;;;;;;;25.63;49.43;100754.72;4989256;28;20791;-71
2022/07/31 10:35:47;;;;;;;2.05;1.90;;;;;;;25.50;49.40;100751.44;4968143;28;20506;-71
2022/07/31 10:38:40;;;;;;;2.08;1.70;;;;;;;25.68;48.75;100754.31;4945013;28;20778;-70
2022/07/31 10:41:34;;;;;;;1.80;1.70;;;;;;;25.84;49.38;100743.16;4957898;28;20748;-70
2022/07/31 10:44:06;;;;;;;1.90;1.80;;;;;;;26.02;51.01;100746.03;4955240;28;20209;-71
2022/07/31 10:47:12;;;;;;;2.25;2.00;;;;;;;26.25;49.44;100743.94;4942720;28;20220;-71
2022/07/31 10:49:56;;;;;;;1.75;1.65;;;;;;;26.42;48.34;100737.06;4984903;28;20296;-71
2022/07/31 10:52:32;;;;;;;1.75;1.65;;;;;;;26.22;45.59;100750.41;4971548;28;20265;-71
2022/07/31 10:55:15;;;;;;;2.45;2.08;;;;;;;26.13;46.61;100737.88;4973753;28;20574;-71
2022/07/31 10:57:50;;;;;;;2.17;1.95;;;;;;;26.33;48.73;100728.06;4989677;28;20231;-71
2022/07/31 11:00:26;;;;;;;2.33;2.13;;;;;;;26.49;46.23;100737.34;4955777;28;21836;-71
2022/07/31 11:03:17;;;;;;;2.28;1.90;;;;;;;26.50;48.86;100733.69;4972246;28;20202;-71
2022/07/31 11:06:02;;;;;;;2.33;1.85;;;;;;;26.75;46.82;100722.41;4972126;28;20212;-71
2022/07/31 11:08:54;;;;;;;1.75;1.65;;;;;;;26.88;45.74;100729.31;4983526;28;20565;-71
2022/07/31 11:11:44;;;;;;;3.53;1.85;;;;;;;26.72;45.15;100724.53;4952746;28;20233;-71
2022/07/31 11:14:46;;;;;;;2.30;1.90;;;;;;;26.90;46.25;100720.16;4927230;29;20258;-71
2022/07/31 11:17:32;;;;;;;2.08;1.60;;;;;;;27.09;44.49;100711.25;4963155;28;20448;-71
2022/07/31 11:20:19;;;;;;;1.60;1.50;;;;;;;27.25;44.10;100712.47;4969626;28;20253;-71
2022/07/31 11:22:53;;;;;;;1.50;1.30;;;;;;;27.38;44.40;100715.69;4970988;28;20221;-71
2022/07/31 11:25:21;;;;;;;2.00;1.73;;;;;;;27.31;43.38;100714.56;4967374;28;20557;-71
2022/07/31 11:27:47;;;;;;;1.80;1.70;;;;;;;27.36;41.56;100712.31;4968292;28;20567;-71
2022/07/31 11:30:14;;;;;;;2.33;1.80;;;;;;;27.25;42.00;100710.63;4967608;28;20217;-71
2022/07/31 11:32:41;;;;;;;1.63;1.52;;;;;;;27.33;44.23;100705.41;4968922;28;20213;-72
2022/07/31 11:35:08;;;;;;;1.73;1.63;;;;;;;27.50;42.92;100711.81;4971035;28;20287;-71
2022/07/31 11:37:34;;;;;;;2.03;1.77;;;;;;;27.65;42.13;100708.63;4968796;28;20240;-72
2022/07/31 11:40:02;;;;;;;1.60;1.48;;;;;;;27.44;41.51;100711.56;4972542;28;20481;-71
2022/07/31 11:42:30;;;;;;;1.73;1.63;;;;;;;27.52;41.66;100698.28;4972160;28;20217;-71
2022/07/31 11:45:02;;;;;;;1.80;1.70;;;;;;;27.61;41.23;100696.56;4970041;28;20204;-72